createdAt,value
2023-06-04T00:00:30.890Z,9.30
2023-06-04T00:05:27.219Z,9.23
2023-06-04T00:10:23.572Z,9.20
2023-06-04T00:15:20.203Z,9.14
2023-06-04T00:20:16.581Z,9.17
2023-06-04T00:25:12.982Z,9.13
2023-06-04T00:30:09.896Z,9.16
2023-06-04T00:35:06.824Z,9.11
2023-06-04T00:40:03.455Z,9.10
2023-06-04T00:44:59.893Z,9.22
2023-06-04T00:49:59.416Z,9.55
2023-06-04T00:54:55.815Z,9.56
2023-06-04T00:59:52.451Z,9.74
2023-06-04T01:05:12.708Z,9.84
2023-06-04T01:10:09.535Z,9.82
2023-06-04T01:15:07.261Z,9.81
2023-06-04T01:20:37.762Z,9.90
2023-06-04T01:25:42.542Z,9.90
2023-06-04T01:30:44.301Z,10.13
2023-06-04T01:35:41.143Z,10.09
2023-06-04T01:40:37.890Z,10.18
2023-06-04T01:45:34.503Z,10.10
2023-06-04T01:50:31.743Z,9.94
2023-06-04T01:55:30.587Z,9.93
2023-06-04T02:00:27.476Z,9.86
2023-06-04T02:05:24.031Z,9.84
2023-06-04T02:10:21.165Z,9.74
2023-06-04T02:15:17.528Z,9.72
2023-06-04T02:20:14.006Z,9.77
2023-06-04T02:25:10.509Z,9.80
2023-06-04T02:30:07.703Z,9.72
2023-06-04T02:35:05.000Z,9.64
2023-06-04T02:40:01.540Z,9.59
2023-06-04T02:44:57.955Z,9.65
2023-06-04T02:49:54.370Z,9.56
2023-06-04T02:54:50.722Z,9.60
2023-06-04T02:59:47.191Z,9.60
2023-06-04T03:04:43.690Z,9.54
2023-06-04T03:09:40.037Z,9.46
2023-06-04T03:14:36.469Z,9.41
2023-06-04T03:19:32.848Z,9.48
2023-06-04T03:24:29.275Z,9.45
2023-06-04T03:29:25.779Z,9.47
2023-06-04T03:34:25.851Z,9.40
2023-06-04T03:39:22.773Z,9.44
2023-06-04T03:44:20.583Z,9.40
2023-06-04T03:49:18.348Z,9.41
2023-06-04T03:54:17.695Z,9.40
2023-06-04T03:59:14.184Z,9.47
2023-06-04T04:04:10.768Z,9.59
2023-06-04T04:09:07.548Z,9.57
2023-06-04T04:14:03.922Z,9.68
2023-06-04T04:19:00.304Z,9.75
2023-06-04T04:23:56.884Z,9.74
2023-06-04T04:28:59.040Z,9.88
2023-06-04T04:33:58.586Z,9.96
2023-06-04T04:38:59.411Z,10.12
2023-06-04T04:44:06.543Z,10.28
2023-06-04T04:49:03.270Z,10.31
2023-06-04T04:54:03.384Z,10.42
2023-06-04T04:58:59.732Z,10.49
2023-06-04T05:03:56.262Z,10.59
2023-06-04T05:08:52.636Z,10.68
2023-06-04T05:13:49.177Z,10.83
2023-06-04T05:18:46.257Z,11.01
2023-06-04T05:23:43.379Z,11.15
2023-06-04T05:28:44.542Z,11.35
2023-06-04T05:33:41.474Z,11.63
2023-06-04T05:38:38.805Z,11.97
2023-06-04T05:43:35.350Z,12.30
2023-06-04T05:48:31.795Z,12.51
2023-06-04T05:53:28.166Z,12.65
2023-06-04T05:58:24.540Z,13.16
2023-06-04T06:03:21.390Z,13.86
2023-06-04T06:08:17.949Z,14.16
2023-06-04T06:13:14.717Z,14.38
2023-06-04T06:18:11.126Z,14.90
2023-06-04T06:23:08.306Z,14.57
2023-06-04T06:28:04.734Z,14.38
2023-06-04T06:33:01.647Z,14.39
2023-06-04T06:37:58.066Z,15.26
2023-06-04T06:42:54.603Z,15.22
2023-06-04T06:47:51.227Z,15.63
2023-06-04T06:52:47.642Z,16.05
2023-06-04T06:57:44.402Z,16.05
2023-06-04T07:02:40.987Z,16.00
2023-06-04T07:07:37.647Z,16.11
2023-06-04T07:12:34.134Z,16.03
2023-06-04T07:17:30.993Z,16.28
2023-06-04T07:22:27.625Z,16.77
2023-06-04T07:27:24.370Z,17.20
2023-06-04T07:32:20.816Z,17.45
2023-06-04T07:37:17.240Z,18.23
2023-06-04T07:42:14.627Z,18.17
2023-06-04T07:47:11.190Z,18.88
2023-06-04T07:52:08.164Z,19.15
2023-06-04T07:57:04.684Z,19.37
2023-06-04T08:02:01.291Z,19.37
2023-06-04T08:06:58.101Z,19.26
2023-06-04T08:11:54.457Z,18.62
2023-06-04T08:16:50.910Z,18.95
2023-06-04T08:21:48.260Z,19.48
2023-06-04T08:26:44.633Z,19.41
2023-06-04T08:31:41.453Z,19.89
2023-06-04T08:36:37.965Z,19.56
2023-06-04T08:41:50.323Z,19.84
2023-06-04T08:46:51.979Z,19.34
2023-06-04T08:51:48.508Z,19.70
2023-06-04T08:56:46.328Z,20.58
2023-06-04T09:01:45.378Z,20.57
2023-06-04T09:06:43.290Z,20.62
2023-06-04T09:11:50.266Z,20.55
2023-06-04T09:16:51.694Z,20.69
2023-06-04T09:21:55.746Z,21.06
2023-06-04T09:26:52.645Z,21.49
2023-06-04T09:31:59.379Z,21.11
2023-06-04T09:36:56.317Z,20.42
2023-06-04T09:42:03.241Z,20.98
2023-06-04T09:47:00.285Z,20.92
2023-06-04T09:51:56.773Z,21.36
2023-06-04T09:56:53.152Z,21.93
2023-06-04T10:01:50.435Z,21.69
2023-06-04T10:06:47.259Z,21.18
2023-06-04T10:11:54.085Z,21.44
2023-06-04T10:16:52.182Z,21.29
2023-06-04T10:21:48.855Z,21.68
2023-06-04T10:26:45.280Z,22.21
2023-06-04T10:31:42.507Z,22.26
2023-06-04T10:36:46.672Z,21.38
2023-06-04T10:41:43.177Z,21.20
2023-06-04T10:46:41.950Z,21.66
2023-06-04T10:51:38.829Z,21.48
2023-06-04T10:56:36.541Z,20.93
2023-06-04T11:01:33.269Z,21.81
2023-06-04T11:06:29.640Z,22.57
2023-06-04T11:11:26.131Z,22.54
2023-06-04T11:16:22.770Z,22.01
2023-06-04T11:21:19.379Z,22.29
2023-06-04T11:26:15.800Z,23.00
2023-06-04T11:31:12.949Z,23.33
2023-06-04T11:36:09.885Z,23.58
2023-06-04T11:41:07.912Z,22.98
2023-06-04T11:46:07.633Z,22.44
2023-06-04T11:51:11.264Z,22.47
2023-06-04T11:56:08.125Z,22.90
2023-06-04T12:01:04.834Z,23.09
2023-06-04T12:06:17.427Z,23.40
2023-06-04T12:11:27.641Z,23.08
2023-06-04T12:16:24.184Z,22.11
2023-06-04T12:21:27.564Z,22.49
2023-06-04T12:26:29.932Z,23.06
2023-06-04T12:31:26.325Z,22.32
2023-06-04T12:36:22.695Z,22.85
2023-06-04T12:41:19.053Z,23.07
2023-06-04T12:46:15.673Z,23.17
2023-06-04T12:51:12.248Z,23.27
2023-06-04T12:56:09.613Z,23.66
2023-06-04T13:01:06.890Z,23.61
2023-06-04T13:06:03.552Z,23.31
2023-06-04T13:11:00.244Z,22.79
2023-06-04T13:15:57.866Z,23.32
2023-06-04T13:20:54.283Z,23.45
2023-06-04T13:25:50.715Z,22.84
2023-06-04T13:30:47.444Z,23.12
2023-06-04T13:35:45.801Z,23.41
2023-06-04T13:40:44.011Z,23.63
2023-06-04T13:45:41.326Z,23.22
2023-06-04T13:50:37.675Z,23.44
2023-06-04T13:55:35.209Z,22.85
2023-06-04T14:00:32.468Z,23.23
2023-06-04T14:05:28.988Z,24.06
2023-06-04T14:10:25.466Z,24.50
2023-06-04T14:15:21.836Z,23.24
2023-06-04T14:20:18.255Z,23.77
2023-06-04T14:25:14.668Z,24.22
2023-06-04T14:30:11.612Z,24.59
2023-06-04T14:35:08.416Z,24.64
2023-06-04T14:40:05.945Z,24.95
2023-06-04T14:45:03.057Z,24.55
2023-06-04T14:49:59.376Z,24.76
2023-06-04T14:54:55.925Z,24.22
2023-06-04T14:59:52.334Z,24.41
2023-06-04T15:04:48.810Z,24.78
2023-06-04T15:09:45.197Z,23.91
2023-06-04T15:14:41.698Z,23.82
2023-06-04T15:19:38.306Z,23.46
2023-06-04T15:24:34.668Z,23.29
2023-06-04T15:29:31.164Z,23.81
2023-06-04T15:34:27.509Z,23.93
2023-06-04T15:39:24.050Z,23.83
2023-06-04T15:44:20.644Z,24.25
2023-06-04T15:49:17.967Z,24.85
2023-06-04T15:54:14.397Z,25.06
2023-06-04T15:59:10.912Z,24.56
2023-06-04T16:04:07.412Z,23.63
2023-06-04T16:09:04.487Z,23.89
2023-06-04T16:14:00.833Z,24.08
2023-06-04T16:18:57.239Z,23.98
2023-06-04T16:23:53.992Z,24.65
2023-06-04T16:28:50.417Z,25.61
2023-06-04T16:33:46.949Z,26.35
2023-06-04T16:38:43.479Z,24.92
2023-06-04T16:43:39.811Z,26.20
2023-06-04T16:48:39.069Z,25.33
2023-06-04T16:53:35.916Z,27.16
2023-06-04T16:58:34.541Z,28.76
2023-06-04T17:03:31.137Z,31.93
2023-06-04T17:08:27.588Z,32.14
2023-06-04T17:13:23.996Z,29.87
2023-06-04T17:18:21.672Z,32.11
2023-06-04T17:23:26.532Z,33.40
2023-06-04T17:28:23.264Z,33.15
2023-06-04T17:33:19.750Z,33.57
2023-06-04T17:38:16.467Z,33.10
2023-06-04T17:43:12.804Z,33.53
2023-06-04T17:48:09.420Z,32.47
2023-06-04T17:53:05.977Z,32.02
2023-06-04T17:58:02.388Z,32.70
2023-06-04T18:02:58.756Z,32.97
2023-06-04T18:07:55.151Z,32.38
2023-06-04T18:12:51.617Z,32.40
2023-06-04T18:17:48.055Z,31.41
2023-06-04T18:22:44.543Z,31.14
2023-06-04T18:27:41.289Z,30.58
2023-06-04T18:32:37.759Z,28.57
2023-06-04T18:37:34.123Z,28.79
2023-06-04T18:42:31.589Z,28.57
2023-06-04T18:47:28.264Z,27.99
2023-06-04T18:52:24.773Z,26.95
2023-06-04T18:57:21.851Z,25.85
2023-06-04T19:02:18.179Z,25.28
2023-06-04T19:07:14.913Z,24.63
2023-06-04T19:12:11.381Z,22.97
2023-06-04T19:17:08.245Z,21.68
2023-06-04T19:22:04.800Z,20.34
2023-06-04T19:27:01.134Z,19.41
2023-06-04T19:31:57.611Z,18.85
2023-06-04T19:36:54.443Z,18.47
2023-06-04T19:41:50.907Z,18.07
2023-06-04T19:46:49.490Z,17.72
2023-06-04T19:51:46.192Z,17.45
2023-06-04T19:56:42.756Z,17.26
2023-06-04T20:01:39.151Z,17.18
2023-06-04T20:06:35.869Z,16.91
2023-06-04T20:11:33.253Z,16.79
2023-06-04T20:16:30.702Z,16.60
2023-06-04T20:21:33.424Z,16.50
2023-06-04T20:26:33.749Z,16.37
2023-06-04T20:31:30.534Z,16.21
2023-06-04T20:36:28.661Z,16.00
2023-06-04T20:41:25.615Z,15.85
2023-06-04T20:46:22.327Z,15.66
2023-06-04T20:51:18.780Z,15.59
2023-06-04T20:56:15.724Z,15.53
2023-06-04T21:01:15.132Z,15.38
2023-06-04T21:06:11.618Z,15.22
2023-06-04T21:11:08.298Z,15.16
2023-06-04T21:16:04.858Z,15.00
2023-06-04T21:21:01.243Z,14.90
2023-06-04T21:25:57.887Z,14.78
2023-06-04T21:30:54.215Z,14.68
2023-06-04T21:35:50.565Z,14.67
2023-06-04T21:40:47.002Z,14.54
2023-06-04T21:45:43.505Z,14.33
2023-06-04T21:50:39.885Z,14.22
2023-06-04T21:55:36.713Z,14.13
2023-06-04T22:00:33.210Z,14.01
2023-06-04T22:05:29.577Z,13.88
2023-06-04T22:10:26.020Z,13.81
2023-06-04T22:15:22.346Z,13.69
2023-06-04T22:20:18.819Z,13.61
2023-06-04T22:25:15.414Z,13.45
2023-06-04T22:30:12.145Z,13.35
2023-06-04T22:35:08.491Z,13.24
2023-06-04T22:40:05.371Z,13.16
2023-06-04T22:45:01.792Z,13.06
2023-06-04T22:49:58.156Z,13.01
2023-06-04T22:54:55.042Z,12.88
2023-06-04T22:59:52.742Z,12.77
2023-06-04T23:04:49.208Z,12.69
2023-06-04T23:09:45.605Z,12.59
2023-06-04T23:14:41.979Z,12.48
2023-06-04T23:19:38.366Z,12.43
2023-06-04T23:24:34.693Z,12.37
2023-06-04T23:29:31.987Z,12.27
2023-06-04T23:34:28.326Z,12.19
2023-06-04T23:39:24.708Z,12.18
2023-06-04T23:44:21.104Z,12.09
2023-06-04T23:49:17.485Z,12.07
2023-06-04T23:54:18.537Z,12.06
2023-06-04T23:59:14.962Z,12.08
